CPA3 weather

Palmerston (District Hospital) Heliport
Palmerston, Ontario, Canada

Public forecast

Using degrees Celsius for public forecast. Weather courtesy of forecast.io.

Closest aviation weather report (METAR) to Palmerston (District Hospital) Heliport

Closest report is Waterloo Airport, 30.3 nm (56.1 km) SE. Retrieved 2020/08/03 23:00 UTC (3 minutes ago):

CYKF 032300Z AUTO 09004KT 9SM FEW037 SCT140 SCT160 20/19 A2998 RMK SLP151 DENSITY ALT 1700FT

Closest aviation forecast (TAF) to Palmerston (District Hospital) Heliport

Closest forecast is Waterloo Airport, 30.3 nm (56.1 km) SE. Retrieved 2020/08/03 20:42 UTC (2 hours ago):

TAF CYKF 031939Z 0320/0408 35005KT P6SM OVC050 TEMPO 0320/0321 VRB15G25KT 2SM TSRA BR BKN020CB OVC030 FM032100 28006KT P6SM SCT040 BKN060 TEMPO 0321/0324 5SM SHRA BR OVC040 PROB30 0321/0324 VRB15G25KT 2SM TSRA BR BKN020 OVC030CB FM040000 16005KT P6SM BKN060 TEMPO 0400/0402 5SM BR FM040200 VRB03KT 6SM BR FEW005 SCT040 TEMPO 0402/0404 11/2SM BR OVC005 FM040400 VRB03KT 1SM BR OVC003 PROB30 0405/0408 3/8SM FG RMK FCST BASED ON AUTO OBS NXT FCST BY 040200Z